Monday, September 24, 2018, 5:53 PM EDT
Back to Local

KHGR, Hagerstown Regional Airport

Location: Hagerstown, MD, United States Lat: 39.7
Local Time: 5:53 PM EDT (21:53 GMT) Lon: -77.733
Time Zone: US/Eastern Elev: 705 ft

Show me the last for .
Show Decoded

2018-09-24 17:35 METAR KHGR 242135Z 08005KT 9SM -RA BKN014 OVC020 18/15 A3034 RMK AO2 P0000
                 T01780150 $ =
2018-09-24 16:53 METAR KHGR 242053Z 10006KT 9SM -RA OVC018 18/15 A3034 RMK AO2 RAB1957 SLP281
                 P0001 60001 T01830150 55008 =
2018-09-24 15:53 METAR KHGR 241953Z 10005KT 10SM OVC021 18/15 A3034 RMK AO2 RAB10E25 SLP281 P0000
                 T01830150 =
2018-09-24 14:53 METAR KHGR 241853Z 10007KT 10SM BKN015 OVC021 18/15 A3035 RMK AO2 SLP286
                 T01830150 =
2018-09-24 13:53 METAR KHGR 241753Z 13008KT 10SM OVC016 18/15 A3036 RMK AO2 SLP290 T01830150
                 10189 20172 58003 =
2018-09-24 12:53 METAR KHGR 241653Z 11008KT 10SM OVC018 18/14 A3037 RMK AO2 SLP291 T01830144 =
2018-09-24 11:53 METAR KHGR 241553Z 12005KT 10SM OVC018 18/15 A3037 RMK AO2 SLP293 T01830150 =
2018-09-24 10:53 METAR KHGR 241453Z 07006KT 10SM OVC017 18/15 A3037 RMK AO2 SLP292 T01830150
                 51011 =
2018-09-24 09:53 METAR KHGR 241353Z 09006KT 10SM OVC015 18/15 A3037 RMK AO2 SLP291 T01780150 =
2018-09-24 08:53 METAR KHGR 241253Z 06007KT 10SM OVC017 18/15 A3035 RMK AO2 SLP286 T01780150 =
2018-09-24 07:53 METAR KHGR 241153Z 03004KT 10SM OVC017 17/15 A3034 RMK AO2 SLP281 70002
                 T01720150 10172 20161 53017 =
2018-09-24 06:53 METAR KHGR 241053Z 36005KT 5SM BR OVC017 16/14 A3032 RMK AO2 SLP277 T01610144 $
                 =
2018-09-24 05:53 METAR KHGR 240953Z AUTO 36005KT 5SM BR OVC015 16/14 A3030 RMK AO2 SLP270
                 T01610144 $ =
2018-09-24 05:01 METAR KHGR 240901Z AUTO 02004KT 5SM BR OVC015 16/14 A3029 RMK AO2 T01610139 $ =
2018-09-24 04:53 METAR KHGR 240853Z AUTO 02003KT 4SM BR OVC014 16/14 A3029 RMK AO2 SLP265
                 T01610139 53004 $ =
2018-09-24 03:53 METAR KHGR 240753Z AUTO 03004KT 10SM OVC010 17/14 A3028 RMK AO2 SLP262 T01670139
                 $ =
2018-09-24 03:06 METAR KHGR 240706Z AUTO 03004KT 10SM OVC014 16/14 A3028 RMK AO2 T01610139 $ =
2018-09-24 02:53 METAR KHGR 240653Z AUTO 05006KT 10SM OVC015 16/14 A3027 RMK AO2 SLP260 T01610139
                 $ =
2018-09-24 02:30 METAR KHGR 240630Z AUTO 06008KT 10SM BKN017 OVC031 16/14 A3027 RMK AO2 T01610139
                 $ =
2018-09-24 01:53 METAR KHGR 240553Z AUTO 06006KT 10SM OVC055 17/14 A3027 RMK AO2 SLP261 60000
                 T01670139 10178 20167 55000 $ =
2018-09-24 01:44 METAR KHGR 240544Z AUTO 06005KT 10SM SCT015 OVC055 17/14 A3027 RMK AO2 T01670139
                 $ =
2018-09-24 00:53 METAR KHGR 240453Z AUTO 05006KT 7SM OVC017 17/14 A3027 RMK AO2 RAE16B22E40
                 SLP260 P0000 T01670144 401780144 $ =
2018-09-24 00:21 METAR KHGR 240421Z AUTO 04004KT 6SM BR SCT009 OVC015 17/15 A3028 RMK AO2 RAE16
                 P0000 T01670150 $ =
2018-09-23 23:53 METAR KHGR 240353Z AUTO 36004KT 4SM -RA BR BKN009 OVC014 17/15 A3027 RMK AO2
                 RAB11 SLP260 P0000 T01670150 $ =
2018-09-23 23:45 METAR KHGR 240345Z AUTO 36005KT 4SM -RA BR BKN011 OVC016 17/15 A3027 RMK AO2
                 RAB11 P0000 T01670150 $ =
2018-09-23 23:25 METAR KHGR 240325Z AUTO 02006KT 6SM -RA BR SCT009 OVC016 17/15 A3027 RMK AO2
                 RAB11 P0000 T01670150 $ =
2018-09-23 23:16 METAR KHGR 240316Z AUTO 02003KT 6SM -RA BR BKN009 OVC016 17/15 A3027 RMK AO2
                 RAB11 P0000 T01670150 $ =
2018-09-23 22:53 METAR KHGR 240253Z AUTO 34003KT 8SM OVC011 17/15 A3028 RMK AO2 CIG 008V013
                 SLP261 T01670150 53011 $ =
2018-09-23 22:32 METAR KHGR 240232Z AUTO 00000KT 9SM BKN013 OVC033 17/15 A3026 RMK AO2 T01670150
                 $ =
2018-09-23 21:53 METAR KHGR 240153Z 01004KT 10SM FEW012 OVC031 17/16 A3026 RMK AO2 SLP255
                 T01670156 $ =
2018-09-23 20:53 METAR KHGR 240053Z 04004KT 9SM BKN024 BKN033 OVC055 17/14 A3024 RMK AO2 SLP249
                 T01670144 $ =
2018-09-23 20:39 METAR KHGR 240039Z 01004KT 7SM BKN022 OVC036 17/15 A3024 RMK AO2 T01670150 $ =
2018-09-23 19:53 METAR KHGR 232353Z 36003KT 5SM BR SCT005 BKN033 OVC050 17/14 A3024 RMK AO2
                 RAB02E20 SLP247 P0001 60001 T01670144 10172 20161 51004 $ =
2018-09-23 19:23 METAR KHGR 232323Z 04003KT 3SM BR BKN005 BKN009 OVC031 17/14 A3023 RMK AO2
                 RAB02E20 P0001 T01670144 $ =
2018-09-23 19:06 METAR KHGR 232306Z 02004KT 2SM -RA BR SCT005 BKN009 OVC037 17/14 A3023 RMK AO2
                 RAB02 P0001 T01670144 $ =
2018-09-23 18:53 METAR KHGR 232253Z 36003KT 2 1/2SM BR FEW005 SCT009 OVC039 17/14 A3023 RMK AO2
                 RAE05 SLP247 P0000 T01670144 $ =
2018-09-23 18:51 METAR KHGR 232251Z 02003KT 2 1/2SM BR FEW005 SCT011 OVC039 17/14 A3023 RMK AO2
                 RAE05 P0000 $ =
2018-09-23 18:41 METAR KHGR 232241Z 02004KT 2 1/2SM BR BKN010 OVC037 17/14 A3023 RMK AO2 RAE05
                 P0000 T01670144 $ =
2018-09-23 18:09 METAR KHGR 232209Z 36004KT 2 1/2SM BR BKN006 BKN011 OVC047 17/14 A3023 RMK AO2
                 RAE05 P0000 T01670144 $ =
2018-09-23 18:06 METAR KHGR 232206Z 36004KT 3SM BR SCT006 BKN011 OVC045 17/14 A3023 RMK AO2 RAE05
                 P0000 T01670144 $ =

Support USWX by starting your Amazon purchase here.